Arife — H8XS — position and weather

sailwx.info

Track history (hours):
 
Tides and Currents Weather Stations Pressure Air Temp Water Temp Dewpoint Dewpoint Depression Visibility Wind Speed Wind Dir Waves Ship Positions

Arife

Last reported at 2017-Sep-19 22:28 UTC. Time now 2017-Sep-25 13:45 UTC.
Position N 41°16' E 031°24'.

Length 101 m; draft 5.8 m.

Type: Cargo ship. MMSI: 371529000.

Date/timePositionNaut miles runAvg speedWind from/ knotsBaromVisibWave heightAir tempDewpointWater temp
2017-Sep-19 22:28N 41°16' E 031°24'0 0.0
2017-Sep-19 21:28N 41°16' E 031°25'0 0.0
2017-Sep-19 20:19N 41°16' E 031°24'0 0.0
2017-Sep-19 19:58N 41°16' E 031°25'0 0.0
2017-Sep-19 19:28N 41°16' E 031°25'0 0.0
2017-Sep-19 18:52N 41°16' E 031°24'0 0.0
2017-Sep-19 18:28N 41°16' E 031°25'0 0.0
2017-Sep-19 17:52N 41°16' E 031°24'0 0.0
2017-Sep-19 17:28N 41°16' E 031°25'0 0.0
2017-Sep-19 16:58N 41°16' E 031°25'0 0.0
2017-Sep-19 16:19N 41°16' E 031°25'0 0.0
2017-Sep-19 15:58N 41°16' E 031°24'2 0.1
2017-Sep-18 23:47N 41°16' E 031°22'6 7.2
2017-Sep-18 22:55N 41°17' E 031°14'713.2
2017-Sep-18 22:22N 41°17' E 031°04'713.1
2017-Sep-18 21:48N 41°17' E 030°55'413.0
2017-Sep-18 21:30N 41°17' E 030°49'713.1
2017-Sep-18 21:00N 41°17' E 030°41'613.1
2017-Sep-18 20:30N 41°17' E 030°32'713.1
2017-Sep-18 19:58N 41°17' E 030°23'613.2
2017-Sep-18 19:30N 41°17' E 030°14'613.1
2017-Sep-18 19:00N 41°16' E 030°06'713.0
2017-Sep-18 18:30N 41°16' E 029°57'712.9
2017-Sep-18 17:58N 41°16' E 029°48'612.7
2017-Sep-18 17:30N 41°17' E 029°40'612.6
2017-Sep-18 17:00N 41°16' E 029°32'612.4
2017-Sep-18 16:30N 41°16' E 029°24'612.2
2017-Sep-18 16:00N 41°16' E 029°15'611.9
2017-Sep-18 15:30N 41°13' E 029°08'611.8
2017-Sep-18 15:00N 41°08' E 029°04'510.7
2017-Sep-18 14:30N 41°03' E 029°03'510.1
2017-Sep-18 14:00N 40°59' E 028°60'4 7.9
2017-Sep-18 13:29N 40°55' E 028°58'33 3.6
2017-Sep-18 04:18N 40°48' E 028°15'1913.2
2017-Sep-18 02:54N 40°45' E 027°51'3413.1
2017-Sep-18 00:17N 40°33' E 027°08'413.3
2017-Sep-18 00:00N 40°32' E 027°04'713.3
2017-Sep-17 23:31N 40°29' E 026°56'713.2
2017-Sep-17 23:00N 40°27' E 026°48'2412.0
2017-Sep-17 21:01N 40°12' E 026°23'010.4
2017-Sep-17 21:01N 40°12' E 026°23'12 9.4
2017-Sep-17 19:47N 40°02' E 026°15'311.5
2017-Sep-17 19:30N 40°01' E 026°11'811.4
2017-Sep-17 18:50N 39°59' E 026°01'412.0
2017-Sep-17 18:29N 39°56' E 025°57'612.0
2017-Sep-17 18:00N 39°52' E 025°53'812.9
2017-Sep-17 17:25N 39°44' E 025°51'712.7
2017-Sep-17 16:52N 39°37' E 025°50'512.5
2017-Sep-17 16:30N 39°33' E 025°49'1113.0
2017-Sep-17 15:39N 39°22' E 025°46'213.3
2017-Sep-17 15:28N 39°20' E 025°45'10612.6
2017-Sep-17 07:05N 37°34' E 025°55'112.1
2017-Sep-17 07:00N 37°33' E 025°55'  
2017-Sep-13 03:12N 31°31' E 031°46'210.8
2017-Sep-13 03:00N 31°33' E 031°46'3 0.3
2017-Sep-12 16:40N 31°36' E 031°46'0 0.0
2017-Sep-12 14:40N 31°36' E 031°46'0 0.1
2017-Sep-12 14:28N 31°36' E 031°46'0 0.1
2017-Sep-12 13:58N 31°36' E 031°45'0 0.0
2017-Sep-12 13:16N 31°36' E 031°46'0 0.1
2017-Sep-12 12:55N 31°36' E 031°45'0 0.0
2017-Sep-12 12:28N 31°36' E 031°45'0 0.0
2017-Sep-12 11:46N 31°36' E 031°45'0 0.0
2017-Sep-12 11:25N 31°36' E 031°45'0 0.0
2017-Sep-12 10:55N 31°36' E 031°45'0 0.0
2017-Sep-12 10:28N 31°36' E 031°45'0 0.0
2017-Sep-12 09:49N 31°36' E 031°45'0 0.0
2017-Sep-12 09:28N 31°36' E 031°45'0 0.0
2017-Sep-12 08:55N 31°36' E 031°46'0 0.0
2017-Sep-12 06:14N 31°36' E 031°46'0 0.0
2017-Sep-12 05:44N 31°36' E 031°46'0 0.0
2017-Sep-12 05:08N 31°36' E 031°46'0 0.0
2017-Sep-11 22:20N 31°36' E 031°46'0 0.0
2017-Sep-11 21:59N 31°36' E 031°46'0 0.0
2017-Sep-11 21:29N 31°36' E 031°46'0 0.0
2017-Sep-11 14:02N 31°36' E 031°46'0 0.0
2017-Sep-11 13:17N 31°36' E 031°46'0 0.0
2017-Sep-11 12:59N 31°36' E 031°46'0 0.0
2017-Sep-11 12:14N 31°36' E 031°46'0 0.0
2017-Sep-11 11:49N 31°36' E 031°46'0 0.0
2017-Sep-11 11:28N 31°36' E 031°46'0 0.0
2017-Sep-11 10:58N 31°36' E 031°46'0 0.0
2017-Sep-11 10:19N 31°36' E 031°46'0 0.0
2017-Sep-11 09:58N 31°36' E 031°46'0 0.0
2017-Sep-11 08:46N 31°36' E 031°46'0 0.0
2017-Sep-11 08:28N 31°36' E 031°46'0 0.0
2017-Sep-11 07:58N 31°36' E 031°46'0 0.0
2017-Sep-11 07:22N 31°36' E 031°46'0 0.0
2017-Sep-11 07:00N 31°36' E 031°46'0 0.0
2017-Sep-11 05:06N 31°36' E 031°46'0 0.0
2017-Sep-11 05:00N 31°36' E 031°46'0 0.0
2017-Sep-11 04:24N 31°36' E 031°46'0 0.0
2017-Sep-11 03:45N 31°36' E 031°46'0 0.0
2017-Sep-10 12:12N 31°36' E 031°46'0 0.0
2017-Sep-10 11:45N 31°36' E 031°46'0 0.0
2017-Sep-10 11:30N 31°36' E 031°46'0 0.0
2017-Sep-10 10:54N 31°36' E 031°46'0 0.0
2017-Sep-10 10:30N 31°36' E 031°46'0 0.0
2017-Sep-10 10:00N 31°36' E 031°46'0 0.0
2017-Sep-10 08:48N 31°36' E 031°46'0 0.0
2017-Sep-10 08:30N 31°36' E 031°46'0 0.0
2017-Sep-10 06:09N 31°36' E 031°46'0 0.0
2017-Sep-10 03:57N 31°36' E 031°46'0 0.0
2017-Sep-09 23:45N 31°36' E 031°46'  
Track history (hours):
 
Tides and Currents Weather Stations Pressure Air Temp Water Temp Dewpoint Dewpoint Depression Visibility Wind Speed Wind Dir Waves Ship Positions

Arife

Last reported at 2017-Sep-19 22:28 UTC. Time now 2017-Sep-25 13:45 UTC.
Position N 41°16' E 031°24'.

Length 101 m; draft 5.8 m.

Type: Cargo ship. MMSI: 371529000.

Date/timePositionNaut miles runAvg speedWind from/ knotsBaromVisibWave heightAir tempDewpointWater temp
2017-Sep-19 22:28N 41°16' E 031°24'0 0.0
2017-Sep-19 21:28N 41°16' E 031°25'0 0.0
2017-Sep-19 20:19N 41°16' E 031°24'0 0.0
2017-Sep-19 19:58N 41°16' E 031°25'0 0.0
2017-Sep-19 19:28N 41°16' E 031°25'0 0.0
2017-Sep-19 18:52N 41°16' E 031°24'0 0.0
2017-Sep-19 18:28N 41°16' E 031°25'0 0.0
2017-Sep-19 17:52N 41°16' E 031°24'0 0.0
2017-Sep-19 17:28N 41°16' E 031°25'0 0.0
2017-Sep-19 16:58N 41°16' E 031°25'0 0.0
2017-Sep-19 16:19N 41°16' E 031°25'0 0.0
2017-Sep-19 15:58N 41°16' E 031°24'2 0.1
2017-Sep-18 23:47N 41°16' E 031°22'6 7.2
2017-Sep-18 22:55N 41°17' E 031°14'713.2
2017-Sep-18 22:22N 41°17' E 031°04'713.1
2017-Sep-18 21:48N 41°17' E 030°55'413.0
2017-Sep-18 21:30N 41°17' E 030°49'713.1
2017-Sep-18 21:00N 41°17' E 030°41'613.1
2017-Sep-18 20:30N 41°17' E 030°32'713.1
2017-Sep-18 19:58N 41°17' E 030°23'613.2
2017-Sep-18 19:30N 41°17' E 030°14'613.1
2017-Sep-18 19:00N 41°16' E 030°06'713.0
2017-Sep-18 18:30N 41°16' E 029°57'712.9
2017-Sep-18 17:58N 41°16' E 029°48'612.7
2017-Sep-18 17:30N 41°17' E 029°40'612.6
2017-Sep-18 17:00N 41°16' E 029°32'612.4
2017-Sep-18 16:30N 41°16' E 029°24'612.2
2017-Sep-18 16:00N 41°16' E 029°15'611.9
2017-Sep-18 15:30N 41°13' E 029°08'611.8
2017-Sep-18 15:00N 41°08' E 029°04'510.7
2017-Sep-18 14:30N 41°03' E 029°03'510.1
2017-Sep-18 14:00N 40°59' E 028°60'4 7.9
2017-Sep-18 13:29N 40°55' E 028°58'33 3.6
2017-Sep-18 04:18N 40°48' E 028°15'1913.2
2017-Sep-18 02:54N 40°45' E 027°51'3413.1
2017-Sep-18 00:17N 40°33' E 027°08'413.3
2017-Sep-18 00:00N 40°32' E 027°04'713.3
2017-Sep-17 23:31N 40°29' E 026°56'713.2
2017-Sep-17 23:00N 40°27' E 026°48'2412.0
2017-Sep-17 21:01N 40°12' E 026°23'010.4
2017-Sep-17 21:01N 40°12' E 026°23'12 9.4
2017-Sep-17 19:47N 40°02' E 026°15'311.5
2017-Sep-17 19:30N 40°01' E 026°11'811.4
2017-Sep-17 18:50N 39°59' E 026°01'412.0
2017-Sep-17 18:29N 39°56' E 025°57'612.0
2017-Sep-17 18:00N 39°52' E 025°53'812.9
2017-Sep-17 17:25N 39°44' E 025°51'712.7
2017-Sep-17 16:52N 39°37' E 025°50'512.5
2017-Sep-17 16:30N 39°33' E 025°49'1113.0
2017-Sep-17 15:39N 39°22' E 025°46'213.3
2017-Sep-17 15:28N 39°20' E 025°45'10612.6
2017-Sep-17 07:05N 37°34' E 025°55'112.1
2017-Sep-17 07:00N 37°33' E 025°55'  
2017-Sep-13 03:12N 31°31' E 031°46'210.8
2017-Sep-13 03:00N 31°33' E 031°46'3 0.3
2017-Sep-12 16:40N 31°36' E 031°46'0 0.0
2017-Sep-12 14:40N 31°36' E 031°46'0 0.1
2017-Sep-12 14:28N 31°36' E 031°46'0 0.1
2017-Sep-12 13:58N 31°36' E 031°45'0 0.0
2017-Sep-12 13:16N 31°36' E 031°46'0 0.1
2017-Sep-12 12:55N 31°36' E 031°45'0 0.0
2017-Sep-12 12:28N 31°36' E 031°45'0 0.0
2017-Sep-12 11:46N 31°36' E 031°45'0 0.0
2017-Sep-12 11:25N 31°36' E 031°45'0 0.0
2017-Sep-12 10:55N 31°36' E 031°45'0 0.0
2017-Sep-12 10:28N 31°36' E 031°45'0 0.0
2017-Sep-12 09:49N 31°36' E 031°45'0 0.0
2017-Sep-12 09:28N 31°36' E 031°45'0 0.0
2017-Sep-12 08:55N 31°36' E 031°46'0 0.0
2017-Sep-12 06:14N 31°36' E 031°46'0 0.0
2017-Sep-12 05:44N 31°36' E 031°46'0 0.0
2017-Sep-12 05:08N 31°36' E 031°46'0 0.0
2017-Sep-11 22:20N 31°36' E 031°46'0 0.0
2017-Sep-11 21:59N 31°36' E 031°46'0 0.0
2017-Sep-11 21:29N 31°36' E 031°46'0 0.0
2017-Sep-11 14:02N 31°36' E 031°46'0 0.0
2017-Sep-11 13:17N 31°36' E 031°46'0 0.0
2017-Sep-11 12:59N 31°36' E 031°46'0 0.0
2017-Sep-11 12:14N 31°36' E 031°46'0 0.0
2017-Sep-11 11:49N 31°36' E 031°46'0 0.0
2017-Sep-11 11:28N 31°36' E 031°46'0 0.0
2017-Sep-11 10:58N 31°36' E 031°46'0 0.0
2017-Sep-11 10:19N 31°36' E 031°46'0 0.0
2017-Sep-11 09:58N 31°36' E 031°46'0 0.0
2017-Sep-11 08:46N 31°36' E 031°46'0 0.0
2017-Sep-11 08:28N 31°36' E 031°46'0 0.0
2017-Sep-11 07:58N 31°36' E 031°46'0 0.0
2017-Sep-11 07:22N 31°36' E 031°46'0 0.0
2017-Sep-11 07:00N 31°36' E 031°46'0 0.0
2017-Sep-11 05:06N 31°36' E 031°46'0 0.0
2017-Sep-11 05:00N 31°36' E 031°46'0 0.0
2017-Sep-11 04:24N 31°36' E 031°46'0 0.0
2017-Sep-11 03:45N 31°36' E 031°46'0 0.0
2017-Sep-10 12:12N 31°36' E 031°46'0 0.0
2017-Sep-10 11:45N 31°36' E 031°46'0 0.0
2017-Sep-10 11:30N 31°36' E 031°46'0 0.0
2017-Sep-10 10:54N 31°36' E 031°46'0 0.0
2017-Sep-10 10:30N 31°36' E 031°46'0 0.0
2017-Sep-10 10:00N 31°36' E 031°46'0 0.0
2017-Sep-10 08:48N 31°36' E 031°46'0 0.0
2017-Sep-10 08:30N 31°36' E 031°46'0 0.0
2017-Sep-10 06:09N 31°36' E 031°46'0 0.0
2017-Sep-10 03:57N 31°36' E 031°46'0 0.0
2017-Sep-09 23:45N 31°36' E 031°46'  

Dump ship's entire track history